createdAt,value
2024-05-09T00:01:52.325Z,11.27
2024-05-09T00:04:19.980Z,11.14
2024-05-09T00:06:46.653Z,11.12
2024-05-09T00:10:05.616Z,11.13
2024-05-09T00:12:35.780Z,11.13
2024-05-09T00:15:02.418Z,11.14
2024-05-09T00:17:29.197Z,11.12
2024-05-09T00:19:55.962Z,11.11
2024-05-09T00:22:22.596Z,11.11
2024-05-09T00:24:49.297Z,11.09
2024-05-09T00:27:16.190Z,11.04
2024-05-09T00:29:42.845Z,11.01
2024-05-09T00:32:09.589Z,10.99
2024-05-09T00:34:36.356Z,11.01
2024-05-09T00:37:03.134Z,10.98
2024-05-09T00:39:29.785Z,10.96
2024-05-09T00:41:56.421Z,10.94
2024-05-09T00:44:23.188Z,10.97
2024-05-09T00:50:36.376Z,10.86
2024-05-09T00:53:11.019Z,10.86
2024-05-09T00:55:39.369Z,10.84
2024-05-09T00:58:10.615Z,10.84
2024-05-09T01:00:40.292Z,10.78
2024-05-09T01:03:10.392Z,10.76
2024-05-09T01:05:39.597Z,10.77
2024-05-09T01:11:53.915Z,10.70
2024-05-09T01:14:20.668Z,10.73
2024-05-09T01:16:47.424Z,10.72
2024-05-09T01:19:35.647Z,10.64
2024-05-09T01:22:04.236Z,10.61
2024-05-09T01:24:30.935Z,10.64
2024-05-09T01:26:57.570Z,10.61
2024-05-09T01:29:24.406Z,10.55
2024-05-09T01:31:52.400Z,10.54
2024-05-09T01:34:19.254Z,10.51
2024-05-09T01:36:45.993Z,10.49
2024-05-09T01:39:12.613Z,10.44
2024-05-09T01:41:39.298Z,10.46
2024-05-09T01:44:06.057Z,10.43
2024-05-09T01:46:32.733Z,10.46
2024-05-09T01:52:47.164Z,10.42
2024-05-09T01:55:14.188Z,10.40
2024-05-09T01:57:40.808Z,10.38
2024-05-09T02:00:10.227Z,10.35
2024-05-09T02:02:37.391Z,10.36
2024-05-09T02:05:04.478Z,10.34
2024-05-09T02:07:31.185Z,10.33
2024-05-09T02:09:57.846Z,10.29
2024-05-09T02:16:14.258Z,10.22
2024-05-09T02:18:40.966Z,10.22
2024-05-09T02:25:08.055Z,10.20
2024-05-09T02:27:34.666Z,10.13
2024-05-09T02:30:01.780Z,10.12
2024-05-09T02:32:28.676Z,10.13
2024-05-09T02:34:55.520Z,10.12
2024-05-09T02:37:22.175Z,10.12
2024-05-09T02:39:48.808Z,10.09
2024-05-09T02:42:15.458Z,10.06
2024-05-09T02:44:42.097Z,10.03
2024-05-09T02:47:08.977Z,9.98
2024-05-09T02:49:35.801Z,9.98
2024-05-09T02:52:02.488Z,9.99
2024-05-09T02:54:29.105Z,9.97
2024-05-09T02:56:55.716Z,9.92
2024-05-09T02:59:22.616Z,9.91
2024-05-09T03:01:49.517Z,9.86
2024-05-09T03:04:16.342Z,9.86
2024-05-09T03:06:43.550Z,9.84
2024-05-09T03:09:10.348Z,9.82
2024-05-09T03:11:37.359Z,9.80
2024-05-09T03:14:04.132Z,9.70
2024-05-09T03:17:24.371Z,9.75
2024-05-09T03:19:51.377Z,9.72
2024-05-09T03:22:18.067Z,9.70
2024-05-09T03:24:44.839Z,9.63
2024-05-09T03:27:11.437Z,9.64
2024-05-09T03:29:38.095Z,9.66
2024-05-09T03:32:05.432Z,9.66
2024-05-09T03:35:22.233Z,9.68
2024-05-09T03:37:49.134Z,9.66
2024-05-09T03:40:20.898Z,9.59
2024-05-09T03:42:50.665Z,9.57
2024-05-09T03:45:17.303Z,9.54
2024-05-09T03:47:44.165Z,9.51
2024-05-09T03:50:18.273Z,9.51
2024-05-09T03:52:52.500Z,9.51
2024-05-09T03:55:19.162Z,9.51
2024-05-09T03:57:45.811Z,9.47
2024-05-09T04:00:18.190Z,9.42
2024-05-09T04:02:52.932Z,9.41
2024-05-09T04:05:19.676Z,9.40
2024-05-09T04:11:34.180Z,9.29
2024-05-09T04:14:01.031Z,9.31
2024-05-09T04:16:29.772Z,9.31
2024-05-09T04:18:56.502Z,9.28
2024-05-09T04:21:23.203Z,9.29
2024-05-09T04:23:49.849Z,9.31
2024-05-09T04:26:16.552Z,9.29
2024-05-09T04:28:43.192Z,9.25
2024-05-09T04:31:09.845Z,9.25
2024-05-09T04:33:36.660Z,9.29
2024-05-09T04:36:03.677Z,9.30
2024-05-09T04:38:30.414Z,9.33
2024-05-09T04:40:57.288Z,9.36
2024-05-09T04:43:24.056Z,9.39
2024-05-09T04:45:50.822Z,9.28
2024-05-09T04:48:17.640Z,9.32
2024-05-09T04:50:44.611Z,9.38
2024-05-09T04:53:16.205Z,9.43
2024-05-09T04:55:43.330Z,9.49
2024-05-09T04:58:10.559Z,9.51
2024-05-09T05:00:39.898Z,9.48
2024-05-09T05:03:10.762Z,9.44
2024-05-09T05:05:43.637Z,9.38
2024-05-09T05:08:16.272Z,9.43
2024-05-09T05:10:44.524Z,9.59
2024-05-09T05:13:23.810Z,9.69
2024-05-09T05:15:55.803Z,9.78
2024-05-09T05:18:24.189Z,9.79
2024-05-09T05:20:51.572Z,9.82
2024-05-09T05:23:20.247Z,9.87
2024-05-09T05:25:48.814Z,9.93
2024-05-09T05:28:16.484Z,10.00
2024-05-09T05:30:43.227Z,10.10
2024-05-09T05:33:14.932Z,10.13
2024-05-09T05:35:42.304Z,10.16
2024-05-09T05:38:10.071Z,10.23
2024-05-09T05:40:38.663Z,10.35
2024-05-09T05:46:53.970Z,10.58
2024-05-09T05:49:20.826Z,10.63
2024-05-09T05:51:47.599Z,10.73
2024-05-09T05:54:14.214Z,10.82
2024-05-09T05:56:40.976Z,10.92
2024-05-09T05:59:07.667Z,11.00
2024-05-09T06:01:34.462Z,11.08
2024-05-09T06:07:42.312Z,11.26
2024-05-09T06:10:17.257Z,11.36
2024-05-09T06:12:48.366Z,11.48
2024-05-09T06:15:15.139Z,11.57
2024-05-09T06:17:41.914Z,11.68
2024-05-09T06:20:16.634Z,11.78
2024-05-09T06:22:50.082Z,11.89
2024-05-09T06:25:16.904Z,11.98
2024-05-09T06:27:43.682Z,12.07
2024-05-09T06:30:21.087Z,12.15
2024-05-09T06:32:52.861Z,12.24
2024-05-09T06:35:19.648Z,12.36
2024-05-09T06:37:46.404Z,12.49
2024-05-09T06:40:17.384Z,12.63
2024-05-09T06:42:44.189Z,12.79
2024-05-09T06:45:10.885Z,12.92
2024-05-09T06:47:37.594Z,13.07
2024-05-09T06:50:08.338Z,13.25
2024-05-09T06:52:39.834Z,13.46
2024-05-09T06:55:06.593Z,13.56
2024-05-09T06:57:33.194Z,13.70
2024-05-09T07:00:00.998Z,13.89
2024-05-09T07:02:28.136Z,14.02
2024-05-09T07:04:54.926Z,14.16
2024-05-09T07:07:21.957Z,14.23
2024-05-09T07:09:48.596Z,14.40
2024-05-09T07:12:15.414Z,14.55
2024-05-09T07:14:42.171Z,14.64
2024-05-09T07:17:09.251Z,14.69
2024-05-09T07:19:36.118Z,14.74
2024-05-09T07:25:49.909Z,15.02
2024-05-09T07:28:18.318Z,15.06
2024-05-09T07:30:45.596Z,15.20
2024-05-09T07:33:23.397Z,15.33
2024-05-09T07:35:51.279Z,15.45
2024-05-09T07:38:17.996Z,15.62
2024-05-09T07:40:44.838Z,15.68
2024-05-09T07:43:12.981Z,15.71
2024-05-09T07:45:49.870Z,15.85
2024-05-09T07:52:37.611Z,16.15
2024-05-09T07:53:45.928Z,16.24
2024-05-09T07:56:16.509Z,16.35
2024-05-09T07:58:44.142Z,16.42
2024-05-09T08:01:11.208Z,16.44
2024-05-09T08:03:48.163Z,16.63
2024-05-09T08:06:16.245Z,16.89
2024-05-09T08:08:50.986Z,16.98
2024-05-09T08:11:17.733Z,17.02
2024-05-09T08:13:44.478Z,17.14
2024-05-09T08:16:11.276Z,17.22
2024-05-09T08:18:38.185Z,17.32
2024-05-09T08:21:05.307Z,17.45
2024-05-09T08:23:32.152Z,17.53
2024-05-09T08:25:58.804Z,17.62
2024-05-09T08:28:25.470Z,17.78
2024-05-09T08:30:52.347Z,17.70
2024-05-09T08:33:19.282Z,17.74
2024-05-09T08:35:46.050Z,17.97
2024-05-09T08:38:12.732Z,18.20
2024-05-09T08:40:39.518Z,18.20
2024-05-09T08:43:11.808Z,18.30
2024-05-09T08:45:44.569Z,18.32
2024-05-09T08:48:15.045Z,18.43
2024-05-09T08:50:43.494Z,18.55
2024-05-09T08:53:10.565Z,18.47
2024-05-09T08:55:41.523Z,18.66
2024-05-09T08:58:14.356Z,18.76
2024-05-09T09:04:31.193Z,18.83
2024-05-09T09:06:59.775Z,19.00
2024-05-09T09:09:28.024Z,18.89
2024-05-09T09:11:54.811Z,18.93
2024-05-09T09:15:06.494Z,19.20
2024-05-09T09:17:33.222Z,19.45
2024-05-09T09:20:00.482Z,19.63
2024-05-09T09:22:27.241Z,19.86
2024-05-09T09:24:53.941Z,19.92
2024-05-09T09:27:22.056Z,20.14
2024-05-09T09:29:49.102Z,20.28
2024-05-09T09:33:31.163Z,20.50
2024-05-09T09:35:58.174Z,20.60
2024-05-09T09:38:30.679Z,20.79
2024-05-09T09:40:58.158Z,21.03
2024-05-09T09:43:26.489Z,21.18
2024-05-09T09:45:55.323Z,21.26
2024-05-09T09:48:23.674Z,21.17
2024-05-09T09:50:55.412Z,21.30
2024-05-09T09:53:23.488Z,21.33
2024-05-09T09:55:52.139Z,21.21
2024-05-09T09:58:19.360Z,20.77
2024-05-09T10:00:46.577Z,20.88
2024-05-09T10:03:13.494Z,20.73
2024-05-09T10:05:43.981Z,20.76
2024-05-09T10:08:13.815Z,21.00
2024-05-09T10:10:46.566Z,20.70
2024-05-09T10:13:13.441Z,20.59
2024-05-09T10:19:28.116Z,21.57
2024-05-09T10:22:03.006Z,21.72
2024-05-09T10:24:52.947Z,22.02
2024-05-09T10:27:30.273Z,21.86
2024-05-09T10:29:58.592Z,21.91
2024-05-09T10:36:41.979Z,22.39
2024-05-09T10:39:08.779Z,21.81
2024-05-09T10:41:38.150Z,21.35
2024-05-09T10:44:12.072Z,21.17
2024-05-09T10:46:38.735Z,21.38
2024-05-09T10:49:07.858Z,21.34
2024-05-09T10:51:35.376Z,21.22
2024-05-09T10:54:20.660Z,21.44
2024-05-09T10:56:56.042Z,21.70
2024-05-09T10:59:22.669Z,21.66
2024-05-09T11:01:50.684Z,21.64
2024-05-09T11:08:05.462Z,21.25
2024-05-09T11:10:34.336Z,21.17
2024-05-09T11:13:01.535Z,21.17
2024-05-09T11:15:48.476Z,21.17
2024-05-09T11:18:26.447Z,21.39
2024-05-09T11:20:56.320Z,21.57
2024-05-09T11:23:27.275Z,21.43
2024-05-09T11:25:55.388Z,21.20
2024-05-09T11:28:22.985Z,21.09
2024-05-09T11:30:52.739Z,21.13
2024-05-09T11:33:20.448Z,21.28
2024-05-09T11:35:47.483Z,21.44
2024-05-09T11:38:14.351Z,21.52
2024-05-09T11:40:41.105Z,21.64
2024-05-09T11:43:08.041Z,21.55
2024-05-09T11:45:34.799Z,21.24
2024-05-09T11:48:01.709Z,21.10
2024-05-09T11:50:33.099Z,21.11
2024-05-09T11:53:02.393Z,21.05
2024-05-09T11:55:29.346Z,21.15
2024-05-09T11:57:56.935Z,21.25
2024-05-09T12:00:33.003Z,21.44
2024-05-09T12:04:00.134Z,21.48
2024-05-09T12:06:27.296Z,21.56
2024-05-09T12:08:54.094Z,21.49
2024-05-09T12:11:20.840Z,21.47
2024-05-09T12:13:47.620Z,21.51
2024-05-09T12:16:14.495Z,21.41
2024-05-09T12:18:41.342Z,21.48
2024-05-09T12:21:08.094Z,21.48
2024-05-09T12:23:34.770Z,21.61
2024-05-09T12:26:58.214Z,21.72
2024-05-09T12:29:25.198Z,21.69
2024-05-09T12:31:53.206Z,21.66
2024-05-09T12:34:21.604Z,21.64
2024-05-09T12:36:51.301Z,21.70
2024-05-09T12:39:19.366Z,21.83
2024-05-09T12:41:47.621Z,21.80
2024-05-09T12:44:15.657Z,21.86
2024-05-09T12:46:42.401Z,21.82
2024-05-09T12:49:09.594Z,21.81
2024-05-09T12:51:36.407Z,21.85
2024-05-09T12:54:03.163Z,21.85
2024-05-09T12:56:29.815Z,21.98
2024-05-09T12:58:56.553Z,22.03
2024-05-09T13:01:23.249Z,22.11
2024-05-09T13:03:50.227Z,22.22
2024-05-09T13:06:17.178Z,22.19
2024-05-09T13:08:43.885Z,22.24
2024-05-09T13:11:10.675Z,22.34
2024-05-09T13:13:37.441Z,22.40
2024-05-09T13:16:04.493Z,22.30
2024-05-09T13:18:33.674Z,22.00
2024-05-09T13:21:00.940Z,21.71
2024-05-09T13:23:27.765Z,21.59
2024-05-09T13:25:54.502Z,21.48
2024-05-09T13:28:22.722Z,21.45
2024-05-09T13:30:49.472Z,21.47
2024-05-09T13:33:16.330Z,21.44
2024-05-09T13:35:48.605Z,21.41
2024-05-09T13:38:23.144Z,21.40
2024-05-09T13:44:43.183Z,21.14
2024-05-09T13:51:12.193Z,20.96
2024-05-09T13:53:40.368Z,20.98
2024-05-09T13:56:08.827Z,21.04
2024-05-09T13:58:37.081Z,21.06
2024-05-09T14:01:05.252Z,20.98
2024-05-09T14:03:33.772Z,20.91
2024-05-09T14:06:02.398Z,21.09
2024-05-09T14:08:29.352Z,21.21
2024-05-09T14:10:56.307Z,21.16
2024-05-09T14:13:23.075Z,21.09
2024-05-09T14:15:50.171Z,21.01
2024-05-09T14:18:18.186Z,21.06
2024-05-09T14:20:44.944Z,21.08
2024-05-09T14:23:14.481Z,21.18
2024-05-09T14:25:43.580Z,21.30
2024-05-09T14:28:13.020Z,21.26
2024-05-09T14:30:40.398Z,21.37
2024-05-09T14:33:09.250Z,21.38
2024-05-09T14:35:39.407Z,21.39
2024-05-09T14:38:08.914Z,21.55
2024-05-09T14:40:42.056Z,21.71
2024-05-09T14:43:13.611Z,21.84
2024-05-09T14:45:41.138Z,21.96
2024-05-09T14:48:08.603Z,21.96
2024-05-09T14:50:38.704Z,22.30
2024-05-09T14:53:11.708Z,22.68
2024-05-09T14:55:40.642Z,23.06
2024-05-09T14:58:09.839Z,22.83
2024-05-09T15:00:41.310Z,22.62
2024-05-09T15:03:11.301Z,22.30
2024-05-09T15:05:38.189Z,22.18
2024-05-09T15:08:08.751Z,22.26
2024-05-09T15:10:37.002Z,22.34
2024-05-09T15:13:05.336Z,22.48
2024-05-09T15:15:32.777Z,22.76
2024-05-09T15:18:00.165Z,22.80
2024-05-09T15:20:33.664Z,23.32
2024-05-09T15:23:03.711Z,23.87
2024-05-09T15:25:30.778Z,24.14
2024-05-09T15:27:57.654Z,24.46
2024-05-09T15:30:30.608Z,24.65
2024-05-09T15:33:00.107Z,24.76
2024-05-09T15:36:41.035Z,24.98
2024-05-09T15:39:09.180Z,25.94
2024-05-09T15:42:02.683Z,26.34
2024-05-09T15:44:29.380Z,26.48
2024-05-09T15:46:56.418Z,26.73
2024-05-09T15:49:23.178Z,26.46
2024-05-09T15:51:49.948Z,26.07
2024-05-09T15:54:16.679Z,26.44
2024-05-09T15:56:47.274Z,26.95
2024-05-09T15:59:13.997Z,27.25
2024-05-09T16:01:40.843Z,27.52
2024-05-09T16:04:07.804Z,27.38
2024-05-09T16:07:08.538Z,27.14
2024-05-09T16:09:37.548Z,27.71
2024-05-09T16:12:05.355Z,28.08
2024-05-09T16:14:32.861Z,27.94
2024-05-09T16:17:03.828Z,27.69
2024-05-09T16:19:31.937Z,27.52
2024-05-09T16:22:00.314Z,28.38
2024-05-09T16:25:27.602Z,29.12
2024-05-09T16:28:51.558Z,29.48
2024-05-09T16:31:18.236Z,28.74
2024-05-09T16:33:45.263Z,28.29
2024-05-09T16:36:12.037Z,28.61
2024-05-09T16:38:40.047Z,28.85
2024-05-09T16:41:06.793Z,29.67
2024-05-09T16:43:33.742Z,29.93
2024-05-09T16:46:00.524Z,30.33
2024-05-09T16:48:53.796Z,30.22
2024-05-09T16:51:22.164Z,30.44
2024-05-09T16:53:49.989Z,30.05
2024-05-09T16:56:16.755Z,29.03
2024-05-09T16:58:43.610Z,28.30
2024-05-09T17:01:13.816Z,28.65
2024-05-09T17:03:40.945Z,29.34
2024-05-09T17:06:09.842Z,29.66
2024-05-09T17:08:37.832Z,30.09
2024-05-09T17:11:04.963Z,30.50
2024-05-09T17:13:32.535Z,30.56
2024-05-09T17:18:26.497Z,31.08
2024-05-09T17:20:53.179Z,31.15
2024-05-09T17:23:19.865Z,31.12
2024-05-09T17:25:46.656Z,31.07
2024-05-09T17:28:13.626Z,31.15
2024-05-09T17:34:28.175Z,30.33
2024-05-09T17:36:55.128Z,30.33
2024-05-09T17:39:21.772Z,30.26
2024-05-09T17:41:48.449Z,30.01
2024-05-09T17:44:15.117Z,28.89
2024-05-09T17:46:42.113Z,27.66
2024-05-09T17:52:55.955Z,25.79
2024-05-09T17:55:22.750Z,25.11
2024-05-09T17:57:49.977Z,24.76
2024-05-09T18:00:24.670Z,24.61
2024-05-09T18:03:00.722Z,24.24
2024-05-09T18:05:29.057Z,24.03
2024-05-09T18:07:57.106Z,23.83
2024-05-09T18:10:30.101Z,23.68
2024-05-09T18:16:49.901Z,23.15
2024-05-09T18:19:16.697Z,22.93
2024-05-09T18:22:23.748Z,22.84
2024-05-09T18:24:50.574Z,22.62
2024-05-09T18:27:19.085Z,22.53
2024-05-09T18:29:45.703Z,22.42
2024-05-09T18:32:12.368Z,22.34
2024-05-09T18:34:39.079Z,22.24
2024-05-09T18:37:05.803Z,22.13
2024-05-09T18:39:32.665Z,21.97
2024-05-09T18:42:01.158Z,21.83
2024-05-09T18:44:27.941Z,21.72
2024-05-09T18:46:55.043Z,21.63
2024-05-09T18:49:21.873Z,21.56
2024-05-09T18:51:48.743Z,21.38
2024-05-09T18:54:40.754Z,21.31
2024-05-09T18:57:07.502Z,21.16
2024-05-09T18:59:34.212Z,21.10
2024-05-09T19:02:00.993Z,21.01
2024-05-09T19:04:27.833Z,20.92
2024-05-09T19:07:04.377Z,20.89
2024-05-09T19:09:31.106Z,20.78
2024-05-09T19:12:00.577Z,20.66
2024-05-09T19:14:27.286Z,20.62
2024-05-09T19:20:36.256Z,20.30
2024-05-09T19:23:04.824Z,20.07
2024-05-09T19:25:32.170Z,19.90
2024-05-09T19:27:59.186Z,19.77
2024-05-09T19:30:34.992Z,19.67
2024-05-09T19:33:07.012Z,19.54
2024-05-09T19:35:33.798Z,19.52
2024-05-09T19:38:00.710Z,19.48
2024-05-09T19:40:31.818Z,19.48
2024-05-09T19:43:01.782Z,19.41
2024-05-09T19:45:29.190Z,19.32
2024-05-09T19:47:56.384Z,19.28
2024-05-09T19:50:31.696Z,19.15
2024-05-09T19:53:06.021Z,19.04
2024-05-09T19:55:33.240Z,19.02
2024-05-09T19:58:01.656Z,18.96
2024-05-09T20:00:35.687Z,18.78
2024-05-09T20:03:04.247Z,18.73
2024-05-09T20:05:31.458Z,18.66
2024-05-09T20:11:46.025Z,18.34
2024-05-09T20:14:12.782Z,18.23
2024-05-09T20:16:39.421Z,18.20
2024-05-09T20:19:06.228Z,18.17
2024-05-09T20:21:33.001Z,18.10
2024-05-09T20:23:59.707Z,17.97
2024-05-09T20:26:29.860Z,17.83
2024-05-09T20:28:57.587Z,17.80
2024-05-09T20:31:24.601Z,17.78
2024-05-09T20:33:51.445Z,17.72
2024-05-09T20:36:18.175Z,17.70
2024-05-09T20:38:53.802Z,17.66
2024-05-09T20:41:20.448Z,17.46
2024-05-09T20:43:47.103Z,17.37
2024-05-09T20:46:16.932Z,17.38
2024-05-09T20:48:43.780Z,17.32
2024-05-09T20:51:10.595Z,17.20
2024-05-09T20:53:37.205Z,17.07
2024-05-09T20:56:04.050Z,17.00
2024-05-09T21:02:18.103Z,16.78
2024-05-09T21:04:45.039Z,16.68
2024-05-09T21:07:11.969Z,16.65
2024-05-09T21:09:38.755Z,16.65
2024-05-09T21:12:05.545Z,16.66
2024-05-09T21:18:13.679Z,16.61
2024-05-09T21:20:40.427Z,16.54
2024-05-09T21:23:07.207Z,16.45
2024-05-09T21:25:49.378Z,16.43
2024-05-09T21:28:16.107Z,16.33
2024-05-09T21:34:24.088Z,16.07
2024-05-09T21:36:50.831Z,16.13
2024-05-09T21:39:17.542Z,16.12
2024-05-09T21:41:44.178Z,16.08
2024-05-09T21:44:10.901Z,16.06
2024-05-09T21:46:37.706Z,16.03
2024-05-09T21:49:04.476Z,15.96
2024-05-09T21:51:31.922Z,15.95
2024-05-09T21:57:45.955Z,15.82
2024-05-09T22:00:28.206Z,15.77
2024-05-09T22:03:21.651Z,15.68
2024-05-09T22:05:48.339Z,15.61
2024-05-09T22:08:15.057Z,15.60
2024-05-09T22:10:41.948Z,15.64
2024-05-09T22:13:43.085Z,15.62
2024-05-09T22:19:50.440Z,15.48
2024-05-09T22:22:17.294Z,15.46
2024-05-09T22:24:44.080Z,15.43
2024-05-09T22:27:11.928Z,15.37
2024-05-09T22:29:39.012Z,15.29
2024-05-09T22:32:06.014Z,15.26
2024-05-09T22:34:32.719Z,15.21
2024-05-09T22:36:59.557Z,15.09
2024-05-09T22:39:26.360Z,15.09
2024-05-09T22:41:53.976Z,15.08
2024-05-09T22:44:20.619Z,15.12
2024-05-09T22:46:47.243Z,15.07
2024-05-09T22:49:13.980Z,14.99
2024-05-09T22:51:40.811Z,14.95
2024-05-09T22:54:07.805Z,14.91
2024-05-09T22:56:34.431Z,14.92
2024-05-09T22:59:01.332Z,14.91
2024-05-09T23:01:28.157Z,14.89
2024-05-09T23:03:54.998Z,14.85
2024-05-09T23:06:21.927Z,14.85
2024-05-09T23:08:48.606Z,14.77
2024-05-09T23:11:15.442Z,14.80
2024-05-09T23:13:42.168Z,14.76
2024-05-09T23:16:17.814Z,14.76
2024-05-09T23:18:44.668Z,14.67
2024-05-09T23:21:11.403Z,14.65
2024-05-09T23:23:38.023Z,14.57
2024-05-09T23:26:05.329Z,14.51
2024-05-09T23:28:32.142Z,14.48
2024-05-09T23:30:58.829Z,14.43
2024-05-09T23:33:25.918Z,14.37
2024-05-09T23:35:52.549Z,14.34
2024-05-09T23:38:22.481Z,14.33
2024-05-09T23:40:51.046Z,14.28
2024-05-09T23:43:37.506Z,14.28
2024-05-09T23:46:04.305Z,14.23
2024-05-09T23:48:31.025Z,14.16
2024-05-09T23:50:57.698Z,14.14
2024-05-09T23:57:11.795Z,14.05
